createdAt,value
2023-08-07T00:02:23.721Z,17.90
2023-08-07T00:04:51.217Z,18.22
2023-08-07T00:07:19.463Z,18.26
2023-08-07T00:09:46.780Z,18.30
2023-08-07T00:12:14.295Z,18.23
2023-08-07T00:14:42.246Z,18.31
2023-08-07T00:17:09.810Z,18.37
2023-08-07T00:19:37.361Z,18.29
2023-08-07T00:22:06.058Z,18.16
2023-08-07T00:24:34.094Z,18.10
2023-08-07T00:27:01.956Z,18.07
2023-08-07T00:29:34.573Z,18.36
2023-08-07T00:32:02.341Z,18.35
2023-08-07T00:34:30.865Z,18.35
2023-08-07T00:36:58.493Z,18.13
2023-08-07T00:39:26.515Z,17.87
2023-08-07T00:41:53.912Z,18.01
2023-08-07T00:44:22.041Z,18.10
2023-08-07T00:46:49.792Z,18.07
2023-08-07T00:49:19.146Z,17.99
2023-08-07T00:51:47.184Z,18.21
2023-08-07T00:54:20.886Z,18.20
2023-08-07T00:56:48.738Z,18.33
2023-08-07T00:59:17.119Z,18.26
2023-08-07T01:01:44.451Z,17.96
2023-08-07T01:04:11.798Z,18.05
2023-08-07T01:06:39.447Z,18.25
2023-08-07T01:09:08.191Z,18.23
2023-08-07T01:12:17.174Z,18.19
2023-08-07T01:15:11.299Z,18.26
2023-08-07T01:17:39.189Z,18.22
2023-08-07T01:20:08.082Z,18.46
2023-08-07T01:22:36.026Z,18.27
2023-08-07T01:25:04.599Z,18.24
2023-08-07T01:28:16.243Z,18.38
2023-08-07T01:30:51.299Z,18.19
2023-08-07T01:33:55.479Z,18.34
2023-08-07T01:36:28.873Z,18.13
2023-08-07T01:39:03.196Z,17.82
2023-08-07T01:41:32.117Z,18.08
2023-08-07T01:43:59.560Z,17.85
2023-08-07T01:46:27.014Z,17.78
2023-08-07T01:48:54.917Z,17.98
2023-08-07T01:51:22.931Z,18.03
2023-08-07T01:53:50.604Z,17.94
2023-08-07T01:56:18.432Z,17.90
2023-08-07T01:58:46.091Z,17.89
2023-08-07T02:01:13.510Z,18.18
2023-08-07T02:03:40.904Z,18.06
2023-08-07T02:06:08.227Z,17.98
2023-08-07T02:08:39.179Z,18.01
2023-08-07T02:11:06.923Z,18.06
2023-08-07T02:13:34.215Z,18.16
2023-08-07T02:16:01.675Z,17.98
2023-08-07T02:18:29.489Z,17.90
2023-08-07T02:20:56.982Z,17.97
2023-08-07T02:23:24.403Z,18.10
2023-08-07T02:25:53.079Z,18.12
2023-08-07T02:28:20.993Z,18.11
2023-08-07T02:30:49.897Z,17.98
2023-08-07T02:33:18.276Z,18.26
2023-08-07T02:35:45.805Z,18.18
2023-08-07T02:38:13.682Z,18.04
2023-08-07T02:40:41.451Z,17.89
2023-08-07T02:43:08.925Z,18.00
2023-08-07T02:45:37.816Z,18.24
2023-08-07T02:48:05.536Z,17.97
2023-08-07T02:50:33.813Z,17.80
2023-08-07T02:53:02.908Z,17.92
2023-08-07T02:55:30.153Z,18.02
2023-08-07T02:57:57.850Z,18.12
2023-08-07T03:00:25.383Z,18.27
2023-08-07T03:02:52.566Z,18.07
2023-08-07T03:05:20.101Z,18.17
2023-08-07T03:07:48.142Z,18.16
2023-08-07T03:10:16.356Z,18.18
2023-08-07T03:12:43.666Z,17.89
2023-08-07T03:15:12.087Z,18.04
2023-08-07T03:17:39.732Z,18.06
2023-08-07T03:20:08.175Z,17.88
2023-08-07T03:22:35.671Z,17.48
2023-08-07T03:25:03.467Z,17.65
2023-08-07T03:27:31.484Z,17.74
2023-08-07T03:29:59.385Z,17.19
2023-08-07T03:32:29.917Z,17.08
2023-08-07T03:34:58.289Z,17.37
2023-08-07T03:37:26.504Z,17.56
2023-08-07T03:39:54.107Z,17.41
2023-08-07T03:42:21.707Z,17.34
2023-08-07T03:44:48.927Z,17.34
2023-08-07T03:47:16.307Z,17.34
2023-08-07T03:49:44.322Z,17.38
2023-08-07T03:52:11.616Z,17.30
2023-08-07T03:54:39.455Z,17.28
2023-08-07T03:57:06.906Z,17.29
2023-08-07T03:59:34.382Z,17.63
2023-08-07T04:02:02.026Z,17.52
2023-08-07T04:04:30.738Z,17.42
2023-08-07T04:06:58.565Z,17.27
2023-08-07T04:09:26.070Z,17.43
2023-08-07T04:11:53.649Z,17.09
2023-08-07T04:14:21.198Z,16.99
2023-08-07T04:16:48.670Z,17.17
2023-08-07T04:19:16.179Z,17.35
2023-08-07T04:21:44.176Z,17.42
2023-08-07T04:24:12.104Z,17.49
2023-08-07T04:26:40.191Z,17.02
2023-08-07T04:29:08.376Z,17.44
2023-08-07T04:31:36.534Z,17.43
2023-08-07T04:34:03.994Z,17.62
2023-08-07T04:36:31.261Z,17.26
2023-08-07T04:38:58.813Z,17.47
2023-08-07T04:41:26.456Z,17.57
2023-08-07T04:43:53.834Z,17.61
2023-08-07T04:46:21.029Z,17.73
2023-08-07T04:48:49.496Z,17.71
2023-08-07T04:51:17.035Z,17.76
2023-08-07T04:53:44.260Z,17.73
2023-08-07T04:56:11.660Z,17.67
2023-08-07T04:58:39.437Z,17.79
2023-08-07T05:01:07.803Z,17.39
2023-08-07T05:03:35.146Z,17.69
2023-08-07T05:06:03.095Z,17.87
2023-08-07T05:08:31.030Z,18.06
2023-08-07T05:10:58.917Z,17.81
2023-08-07T05:13:26.534Z,18.03
2023-08-07T05:15:54.337Z,17.69
2023-08-07T05:18:21.737Z,17.75
2023-08-07T05:20:49.381Z,17.87
2023-08-07T05:23:16.696Z,18.04
2023-08-07T05:25:49.954Z,18.08
2023-08-07T05:28:17.846Z,18.14
2023-08-07T05:30:45.695Z,18.10
2023-08-07T05:33:15.991Z,17.97
2023-08-07T05:35:43.892Z,17.88
2023-08-07T05:38:11.724Z,18.19
2023-08-07T05:40:39.311Z,18.22
2023-08-07T05:43:06.532Z,18.38
2023-08-07T05:45:33.770Z,18.29
2023-08-07T05:48:01.114Z,18.63
2023-08-07T05:50:28.413Z,18.54
2023-08-07T05:52:55.859Z,18.73
2023-08-07T05:55:23.302Z,19.01
2023-08-07T05:57:51.192Z,19.27
2023-08-07T06:00:20.659Z,19.21
2023-08-07T06:02:48.232Z,18.88
2023-08-07T06:05:17.258Z,19.40
2023-08-07T06:07:44.621Z,19.48
2023-08-07T06:10:15.711Z,19.93
2023-08-07T06:12:43.263Z,19.72
2023-08-07T06:15:11.513Z,19.77
2023-08-07T06:17:40.458Z,20.09
2023-08-07T06:20:12.729Z,20.19
2023-08-07T06:22:44.950Z,19.97
2023-08-07T06:25:12.227Z,19.87
2023-08-07T06:27:39.936Z,19.69
2023-08-07T06:30:08.848Z,19.68
2023-08-07T06:32:37.819Z,19.58
2023-08-07T06:35:06.182Z,19.87
2023-08-07T06:37:33.581Z,20.35
2023-08-07T06:40:01.205Z,21.14
2023-08-07T06:42:28.522Z,21.27
2023-08-07T06:44:55.933Z,21.20
2023-08-07T06:47:23.345Z,20.78
2023-08-07T06:49:50.810Z,20.94
2023-08-07T06:52:18.030Z,20.70
2023-08-07T06:54:45.404Z,20.70
2023-08-07T06:57:16.231Z,21.33
2023-08-07T06:59:43.714Z,22.06
2023-08-07T07:02:11.035Z,23.45
2023-08-07T07:04:38.226Z,23.97
2023-08-07T07:07:05.892Z,24.93
2023-08-07T07:09:33.380Z,25.29
2023-08-07T07:12:00.793Z,26.62
2023-08-07T07:14:28.594Z,27.23
2023-08-07T07:16:55.867Z,26.63
2023-08-07T07:19:23.077Z,27.61
2023-08-07T07:21:51.183Z,30.15
2023-08-07T07:24:18.786Z,28.99
2023-08-07T07:26:46.352Z,27.08
2023-08-07T07:29:13.819Z,26.28
2023-08-07T07:31:41.429Z,25.68
2023-08-07T07:34:08.937Z,24.62
2023-08-07T07:36:36.182Z,24.11
2023-08-07T07:39:03.875Z,23.44
2023-08-07T07:41:31.183Z,23.23
2023-08-07T07:43:58.498Z,23.35
2023-08-07T07:46:26.927Z,22.73
2023-08-07T07:48:54.184Z,22.57
2023-08-07T07:51:21.622Z,22.59
2023-08-07T07:53:54.842Z,22.86
2023-08-07T07:56:28.210Z,23.55
2023-08-07T07:58:57.023Z,23.75
2023-08-07T08:01:24.659Z,24.10
2023-08-07T08:03:52.086Z,24.14
2023-08-07T08:06:19.927Z,24.26
2023-08-07T08:08:47.268Z,24.10
2023-08-07T08:11:15.369Z,24.42
2023-08-07T08:13:42.846Z,23.93
2023-08-07T08:16:10.381Z,23.96
2023-08-07T08:18:37.620Z,23.53
2023-08-07T08:21:05.717Z,23.51
2023-08-07T08:23:33.366Z,23.55
2023-08-07T08:26:04.753Z,23.35
2023-08-07T08:28:33.062Z,23.15
2023-08-07T08:31:00.732Z,22.66
2023-08-07T08:33:28.142Z,22.57
2023-08-07T08:35:55.341Z,22.33
2023-08-07T08:38:23.133Z,23.16
2023-08-07T08:40:53.714Z,23.19
2023-08-07T08:43:22.144Z,22.70
2023-08-07T08:45:49.774Z,22.73
2023-08-07T08:48:24.737Z,23.55
2023-08-07T08:50:53.403Z,25.08
2023-08-07T08:53:23.484Z,25.04
2023-08-07T08:55:52.402Z,25.46
2023-08-07T08:58:22.567Z,25.35
2023-08-07T09:00:51.692Z,25.79
2023-08-07T09:03:20.395Z,26.37
2023-08-07T09:05:49.967Z,27.05
2023-08-07T09:08:18.727Z,27.72
2023-08-07T09:10:46.970Z,28.35
2023-08-07T09:13:23.280Z,27.23
2023-08-07T09:15:53.446Z,27.80
2023-08-07T09:18:23.536Z,28.80
2023-08-07T09:20:52.359Z,29.47
2023-08-07T09:23:20.643Z,28.92
2023-08-07T09:25:48.187Z,28.85
2023-08-07T09:28:15.950Z,29.95
2023-08-07T09:30:45.489Z,29.50
2023-08-07T09:33:13.162Z,30.48
2023-08-07T09:35:41.106Z,29.61
2023-08-07T09:38:09.057Z,29.95
2023-08-07T09:40:36.883Z,29.88
2023-08-07T09:43:04.492Z,28.71
2023-08-07T09:45:32.771Z,28.73
2023-08-07T09:48:07.608Z,28.26
2023-08-07T09:50:35.030Z,27.41
2023-08-07T09:53:02.881Z,27.01
2023-08-07T09:55:30.380Z,27.78
2023-08-07T09:57:57.620Z,29.62
2023-08-07T10:00:24.804Z,30.95
2023-08-07T10:02:52.766Z,31.40
2023-08-07T10:05:23.330Z,31.07
2023-08-07T10:07:53.162Z,29.35
2023-08-07T10:10:21.503Z,29.84
2023-08-07T10:12:50.406Z,29.91
2023-08-07T10:15:18.901Z,30.38
2023-08-07T10:17:46.415Z,30.63
2023-08-07T10:20:18.438Z,32.92
2023-08-07T10:22:47.604Z,33.42
2023-08-07T10:25:17.138Z,33.15
2023-08-07T10:27:45.940Z,34.59
2023-08-07T10:30:17.606Z,34.46
2023-08-07T10:32:46.670Z,34.31
2023-08-07T10:35:33.803Z,35.42
2023-08-07T10:38:12.645Z,34.98
2023-08-07T10:41:07.566Z,34.89
2023-08-07T10:43:46.687Z,32.98
2023-08-07T10:46:25.789Z,31.83
2023-08-07T10:49:00.685Z,30.86
2023-08-07T10:51:34.695Z,29.46
2023-08-07T10:54:03.572Z,28.32
2023-08-07T10:56:38.737Z,28.49
2023-08-07T10:59:13.974Z,27.51
2023-08-07T11:01:44.135Z,26.80
2023-08-07T11:04:15.563Z,26.75
2023-08-07T11:06:48.445Z,26.29
2023-08-07T11:09:16.108Z,25.20
2023-08-07T11:11:50.185Z,25.15
2023-08-07T11:14:20.789Z,24.75
2023-08-07T11:16:49.757Z,25.46
2023-08-07T11:19:19.545Z,26.54
2023-08-07T11:21:47.220Z,27.11
2023-08-07T11:24:17.172Z,27.22
2023-08-07T11:26:48.390Z,26.67
2023-08-07T11:29:23.958Z,26.72
2023-08-07T11:31:52.998Z,26.00
2023-08-07T11:34:22.133Z,25.01
2023-08-07T11:36:49.600Z,24.42
2023-08-07T11:39:18.376Z,24.64
2023-08-07T11:41:46.852Z,24.32
2023-08-07T11:44:14.322Z,24.42
2023-08-07T11:51:41.182Z,24.12
2023-08-07T11:54:08.826Z,23.92
2023-08-07T11:56:36.134Z,23.75
2023-08-07T11:59:04.585Z,23.82
2023-08-07T12:01:39.440Z,23.37
2023-08-07T12:04:06.797Z,22.88
2023-08-07T12:06:37.111Z,22.87
2023-08-07T12:09:04.722Z,22.55
2023-08-07T12:11:33.391Z,22.15
2023-08-07T12:14:04.919Z,22.07
2023-08-07T12:16:36.659Z,22.15
2023-08-07T12:19:05.387Z,22.21
2023-08-07T12:21:34.800Z,22.50
2023-08-07T12:24:02.415Z,22.29
2023-08-07T12:26:31.224Z,22.49
2023-08-07T12:28:59.283Z,22.62
2023-08-07T12:31:26.890Z,22.45
2023-08-07T12:33:55.261Z,22.08
2023-08-07T12:36:23.375Z,22.60
2023-08-07T12:38:51.163Z,22.52
2023-08-07T12:43:48.911Z,24.62
2023-08-07T12:48:46.419Z,25.17
2023-08-07T12:51:14.125Z,25.78
2023-08-07T12:53:41.811Z,25.47
2023-08-07T12:56:09.092Z,25.47
2023-08-07T12:58:36.560Z,25.23
2023-08-07T13:01:05.937Z,25.12
2023-08-07T13:03:33.414Z,25.08
2023-08-07T13:06:00.872Z,25.02
2023-08-07T13:08:29.293Z,25.18
2023-08-07T13:10:57.637Z,25.59
2023-08-07T13:13:25.548Z,26.17
2023-08-07T13:15:55.366Z,26.14
2023-08-07T13:18:23.737Z,26.48
2023-08-07T13:20:51.642Z,26.18
2023-08-07T13:23:19.183Z,26.44
2023-08-07T13:25:46.682Z,26.58
2023-08-07T13:28:14.237Z,26.50
2023-08-07T13:30:42.488Z,26.10
2023-08-07T13:33:10.039Z,25.00
2023-08-07T13:35:37.400Z,24.62
2023-08-07T13:38:07.063Z,24.51
2023-08-07T13:40:35.870Z,24.30
2023-08-07T13:43:08.615Z,24.39
2023-08-07T13:45:38.222Z,23.88
2023-08-07T13:48:08.591Z,23.91
2023-08-07T13:50:38.842Z,24.08
2023-08-07T13:53:14.610Z,24.10
2023-08-07T13:55:44.859Z,24.43
2023-08-07T13:58:12.952Z,24.65
2023-08-07T14:00:41.569Z,25.20
2023-08-07T14:03:11.797Z,25.67
2023-08-07T14:05:39.474Z,26.36
2023-08-07T14:08:07.629Z,27.03
2023-08-07T14:10:37.688Z,27.11
2023-08-07T14:13:06.711Z,27.13
2023-08-07T14:15:33.933Z,27.03
2023-08-07T14:18:01.159Z,27.06
2023-08-07T14:20:29.335Z,26.68
2023-08-07T14:23:03.019Z,25.85
2023-08-07T14:25:33.921Z,25.62
2023-08-07T14:28:02.060Z,25.25
2023-08-07T14:30:29.926Z,25.91
2023-08-07T14:32:57.621Z,26.93
2023-08-07T14:35:25.139Z,27.26
2023-08-07T14:37:52.569Z,27.39
2023-08-07T14:40:20.104Z,26.98
2023-08-07T14:42:47.340Z,26.45
2023-08-07T14:45:16.270Z,25.96
2023-08-07T14:47:43.767Z,25.80
2023-08-07T14:50:11.814Z,24.73
2023-08-07T14:52:39.209Z,24.34
2023-08-07T14:55:07.395Z,24.05
2023-08-07T14:57:34.768Z,24.01
2023-08-07T15:00:02.497Z,24.45
2023-08-07T15:02:32.611Z,25.00
2023-08-07T15:05:00.005Z,25.20
2023-08-07T15:07:27.661Z,25.39
2023-08-07T15:09:55.682Z,25.91
2023-08-07T15:12:23.266Z,25.70
2023-08-07T15:14:50.863Z,25.61
2023-08-07T15:17:18.334Z,25.98
2023-08-07T15:19:45.587Z,26.21
2023-08-07T15:22:13.409Z,26.46
2023-08-07T15:24:41.114Z,26.36
2023-08-07T15:27:09.045Z,26.34
2023-08-07T15:29:37.137Z,26.65
2023-08-07T15:32:05.536Z,26.14
2023-08-07T15:34:32.744Z,25.44
2023-08-07T15:37:00.428Z,25.25
2023-08-07T15:39:28.602Z,25.46
2023-08-07T15:41:56.290Z,25.11
2023-08-07T15:44:23.608Z,24.95
2023-08-07T15:46:50.721Z,25.03
2023-08-07T15:49:18.207Z,24.91
2023-08-07T15:51:46.208Z,24.90
2023-08-07T15:54:13.455Z,24.93
2023-08-07T15:56:40.753Z,24.90
2023-08-07T15:59:08.298Z,24.97
2023-08-07T16:01:35.757Z,24.63
2023-08-07T16:04:03.806Z,24.78
2023-08-07T16:06:32.060Z,25.30
2023-08-07T16:08:59.931Z,25.14
2023-08-07T16:11:27.706Z,25.44
2023-08-07T16:13:54.998Z,25.80
2023-08-07T16:16:22.387Z,25.91
2023-08-07T16:18:49.887Z,25.31
2023-08-07T16:21:17.603Z,25.42
2023-08-07T16:23:45.027Z,24.96
2023-08-07T16:26:13.111Z,24.99
2023-08-07T16:28:40.775Z,24.91
2023-08-07T16:31:08.598Z,25.33
2023-08-07T16:33:36.446Z,25.47
2023-08-07T16:36:03.835Z,25.65
2023-08-07T16:38:31.548Z,25.82
2023-08-07T16:40:59.094Z,25.77
2023-08-07T16:43:26.525Z,25.66
2023-08-07T16:45:53.929Z,25.53
2023-08-07T16:48:21.169Z,25.38
2023-08-07T16:51:02.514Z,25.57
2023-08-07T16:53:37.973Z,25.42
2023-08-07T16:56:06.763Z,25.30
2023-08-07T16:58:35.006Z,25.46
2023-08-07T17:01:02.385Z,25.52
2023-08-07T17:03:29.750Z,25.34
2023-08-07T17:05:57.202Z,24.86
2023-08-07T17:08:25.008Z,24.82
2023-08-07T17:10:53.294Z,24.75
2023-08-07T17:13:21.482Z,24.54
2023-08-07T17:15:49.062Z,24.42
2023-08-07T17:18:16.539Z,24.67
2023-08-07T17:20:44.717Z,24.91
2023-08-07T17:23:12.435Z,25.52
2023-08-07T17:25:40.273Z,25.56
2023-08-07T17:28:08.490Z,25.44
2023-08-07T17:30:36.486Z,25.29
2023-08-07T17:33:04.944Z,24.81
2023-08-07T17:35:32.866Z,24.16
2023-08-07T17:38:00.387Z,23.95
2023-08-07T17:40:28.193Z,23.86
2023-08-07T17:42:55.537Z,23.44
2023-08-07T17:45:22.969Z,23.53
2023-08-07T17:47:50.341Z,23.05
2023-08-07T17:50:18.094Z,23.24
2023-08-07T17:52:45.678Z,23.67
2023-08-07T17:55:13.617Z,23.72
2023-08-07T17:57:40.908Z,24.09
2023-08-07T18:00:10.799Z,24.11
2023-08-07T18:02:38.323Z,24.26
2023-08-07T18:05:06.961Z,24.38
2023-08-07T18:07:35.119Z,24.45
2023-08-07T18:10:04.021Z,24.15
2023-08-07T18:12:31.769Z,23.95
2023-08-07T18:14:59.769Z,23.98
2023-08-07T18:17:27.009Z,24.11
2023-08-07T18:19:54.295Z,23.83
2023-08-07T18:22:22.008Z,23.62
2023-08-07T18:24:49.522Z,23.53
2023-08-07T18:27:18.959Z,23.26
2023-08-07T18:29:46.933Z,23.13
2023-08-07T18:32:14.725Z,22.86
2023-08-07T18:34:42.025Z,22.68
2023-08-07T18:37:09.373Z,22.42
2023-08-07T18:39:37.224Z,22.45
2023-08-07T18:42:05.372Z,22.39
2023-08-07T18:44:32.679Z,22.39
2023-08-07T18:47:00.578Z,22.39
2023-08-07T18:49:28.190Z,22.23
2023-08-07T18:51:55.940Z,22.10
2023-08-07T18:54:25.376Z,22.04
2023-08-07T18:56:53.645Z,22.06
2023-08-07T18:59:20.994Z,21.71
2023-08-07T19:01:48.442Z,21.75
2023-08-07T19:04:16.838Z,21.59
2023-08-07T19:06:44.970Z,21.38
2023-08-07T19:09:13.646Z,21.46
2023-08-07T19:11:41.677Z,21.23
2023-08-07T19:14:09.378Z,21.25
2023-08-07T19:16:36.734Z,21.25
2023-08-07T19:19:04.151Z,21.20
2023-08-07T19:21:32.160Z,21.26
2023-08-07T19:23:59.747Z,21.26
2023-08-07T19:26:52.811Z,20.88
2023-08-07T19:29:20.756Z,21.41
2023-08-07T19:31:48.754Z,21.56
2023-08-07T19:34:17.526Z,21.65
2023-08-07T19:36:44.895Z,21.20
2023-08-07T19:39:13.021Z,20.83
2023-08-07T19:41:41.628Z,20.91
2023-08-07T19:44:11.556Z,21.06
2023-08-07T19:46:39.061Z,20.82
2023-08-07T19:49:06.387Z,20.81
2023-08-07T19:51:34.330Z,21.06
2023-08-07T19:54:02.765Z,20.74
2023-08-07T19:56:33.509Z,21.12
2023-08-07T19:59:04.701Z,20.76
2023-08-07T20:01:33.091Z,20.93
2023-08-07T20:04:00.813Z,20.79
2023-08-07T20:06:37.733Z,20.44
2023-08-07T20:09:05.442Z,20.07
2023-08-07T20:11:39.320Z,20.16
2023-08-07T20:14:07.729Z,20.00
2023-08-07T20:16:35.715Z,19.76
2023-08-07T20:19:03.436Z,19.89
2023-08-07T20:21:31.280Z,19.78
2023-08-07T20:23:59.061Z,20.14
2023-08-07T20:26:51.792Z,20.21
2023-08-07T20:29:20.552Z,20.09
2023-08-07T20:31:48.536Z,19.60
2023-08-07T20:34:16.171Z,19.22
2023-08-07T20:36:43.654Z,20.06
2023-08-07T20:39:14.646Z,19.72
2023-08-07T20:41:42.418Z,19.56
2023-08-07T20:44:09.699Z,19.09
2023-08-07T20:46:36.913Z,19.49
2023-08-07T20:49:04.289Z,19.18
2023-08-07T20:51:35.251Z,19.17
2023-08-07T20:54:03.110Z,19.00
2023-08-07T20:56:30.402Z,18.99
2023-08-07T20:58:57.780Z,18.92
2023-08-07T21:01:25.539Z,18.61
2023-08-07T21:03:52.776Z,18.51
2023-08-07T21:06:20.298Z,18.34
2023-08-07T21:08:48.466Z,18.09
2023-08-07T21:11:16.432Z,18.18
2023-08-07T21:13:44.434Z,18.43
2023-08-07T21:16:11.633Z,18.13
2023-08-07T21:18:39.117Z,18.45
2023-08-07T21:21:07.453Z,18.61
2023-08-07T21:23:36.013Z,18.68
2023-08-07T21:26:03.842Z,18.57
2023-08-07T21:28:32.857Z,18.50
2023-08-07T21:31:00.825Z,18.26
2023-08-07T21:33:28.745Z,17.98
2023-08-07T21:35:57.315Z,17.65
2023-08-07T21:38:25.285Z,17.84
2023-08-07T21:40:52.705Z,17.83
2023-08-07T21:43:20.698Z,17.98
2023-08-07T21:45:50.751Z,18.04
2023-08-07T21:48:18.904Z,18.26
2023-08-07T21:50:49.907Z,18.07
2023-08-07T21:53:17.452Z,18.02
2023-08-07T21:55:44.602Z,18.18
2023-08-07T21:58:11.887Z,17.97
2023-08-07T22:00:46.519Z,18.16
2023-08-07T22:03:13.830Z,18.34
2023-08-07T22:05:41.297Z,18.10
2023-08-07T22:08:09.285Z,17.99
2023-08-07T22:10:36.882Z,18.04
2023-08-07T22:13:04.635Z,18.16
2023-08-07T22:15:33.020Z,18.14
2023-08-07T22:18:00.418Z,18.50
2023-08-07T22:20:28.318Z,18.67
2023-08-07T22:22:56.602Z,18.73
2023-08-07T22:25:26.403Z,19.06
2023-08-07T22:27:54.171Z,18.96
2023-08-07T22:30:22.697Z,18.39
2023-08-07T22:32:51.548Z,18.49
2023-08-07T22:36:34.346Z,18.17
2023-08-07T22:40:17.769Z,18.62
2023-08-07T22:44:00.508Z,18.66
2023-08-07T22:47:43.534Z,18.48
2023-08-07T22:50:10.986Z,18.57
2023-08-07T22:52:38.654Z,18.31
2023-08-07T22:56:21.915Z,18.34
2023-08-07T23:00:05.747Z,17.94
2023-08-07T23:02:33.121Z,18.09
2023-08-07T23:05:00.502Z,18.16
2023-08-07T23:07:28.530Z,17.73
2023-08-07T23:11:11.929Z,17.24
2023-08-07T23:14:55.005Z,17.50
2023-08-07T23:18:37.482Z,17.59
2023-08-07T23:22:20.790Z,18.39
2023-08-07T23:26:04.168Z,17.83
2023-08-07T23:28:32.276Z,17.81
2023-08-07T23:31:00.317Z,17.78
2023-08-07T23:34:42.960Z,18.14
2023-08-07T23:37:10.372Z,18.35
2023-08-07T23:39:37.911Z,18.05
2023-08-07T23:42:05.915Z,18.12
2023-08-07T23:44:33.116Z,18.36
2023-08-07T23:47:00.401Z,18.48
2023-08-07T23:49:27.677Z,18.24
2023-08-07T23:51:55.539Z,18.52
2023-08-07T23:54:23.081Z,18.26
2023-08-07T23:56:50.245Z,18.43
2023-08-07T23:59:17.625Z,18.31
